sensor_id;sensor_type;location;lat;lon;timestamp;pressure;altitude;pressure_sealevel;temperature;humidity
77011;BME280;65945;53.148;17.956;2023-05-07T00:01:26;101890.38;;;5.06;84.97
77011;BME280;65945;53.148;17.956;2023-05-07T00:03:53;101890.91;;;5.01;84.86
77011;BME280;65945;53.148;17.956;2023-05-07T00:06:19;101892.45;;;4.96;85.00
77011;BME280;65945;53.148;17.956;2023-05-07T00:08:46;101889.60;;;4.91;85.08
77011;BME280;65945;53.148;17.956;2023-05-07T00:11:13;101888.37;;;4.86;85.53
77011;BME280;65945;53.148;17.956;2023-05-07T00:13:39;101883.83;;;4.80;85.40
77011;BME280;65945;53.148;17.956;2023-05-07T00:16:06;101883.30;;;4.74;85.38
77011;BME280;65945;53.148;17.956;2023-05-07T00:18:32;101885.05;;;4.70;85.39
77011;BME280;65945;53.148;17.956;2023-05-07T00:20:59;101884.84;;;4.64;85.55
77011;BME280;65945;53.148;17.956;2023-05-07T00:23:26;101889.33;;;4.60;85.59
77011;BME280;65945;53.148;17.956;2023-05-07T00:25:52;101889.43;;;4.56;85.73
77011;BME280;65945;53.148;17.956;2023-05-07T00:28:19;101888.95;;;4.51;85.44
77011;BME280;65945;53.148;17.956;2023-05-07T00:30:45;101891.48;;;4.45;85.38
77011;BME280;65945;53.148;17.956;2023-05-07T00:33:12;101894.98;;;4.40;85.61
77011;BME280;65945;53.148;17.956;2023-05-07T00:35:38;101896.88;;;4.35;85.42
77011;BME280;65945;53.148;17.956;2023-05-07T00:38:05;101899.98;;;4.30;85.78
77011;BME280;65945;53.148;17.956;2023-05-07T00:40:32;101898.72;;;4.24;85.53
77011;BME280;65945;53.148;17.956;2023-05-07T00:42:59;101899.59;;;4.20;85.54
77011;BME280;65945;53.148;17.956;2023-05-07T00:45:27;101900.38;;;4.15;85.46
77011;BME280;65945;53.148;17.956;2023-05-07T00:47:55;101901.20;;;4.12;85.59
77011;BME280;65945;53.148;17.956;2023-05-07T00:50:22;101904.35;;;4.07;85.32
77011;BME280;65945;53.148;17.956;2023-05-07T00:52:48;101911.95;;;4.03;85.76
77011;BME280;65945;53.148;17.956;2023-05-07T00:55:15;101914.36;;;4.00;85.65
77011;BME280;65945;53.148;17.956;2023-05-07T00:57:42;101914.28;;;3.95;85.53
77011;BME280;65945;53.148;17.956;2023-05-07T01:00:09;101918.13;;;3.91;85.32
77011;BME280;65945;53.148;17.956;2023-05-07T01:02:37;101916.41;;;3.86;85.44
77011;BME280;65945;53.148;17.956;2023-05-07T01:05:05;101916.55;;;3.79;85.15
77011;BME280;65945;53.148;17.956;2023-05-07T01:07:34;101918.17;;;3.73;85.37
77011;BME280;65945;53.148;17.956;2023-05-07T01:10:03;101920.23;;;3.68;85.20
77011;BME280;65945;53.148;17.956;2023-05-07T01:12:30;101918.77;;;3.61;85.22
77011;BME280;65945;53.148;17.956;2023-05-07T01:14:58;101919.60;;;3.56;85.19
77011;BME280;65945;53.148;17.956;2023-05-07T01:17:25;101921.46;;;3.50;85.38
77011;BME280;65945;53.148;17.956;2023-05-07T01:19:52;101917.95;;;3.44;85.41
77011;BME280;65945;53.148;17.956;2023-05-07T01:22:29;101920.09;;;3.38;85.47
77011;BME280;65945;53.148;17.956;2023-05-07T01:24:58;101917.06;;;3.31;85.41
77011;BME280;65945;53.148;17.956;2023-05-07T01:27:27;101924.48;;;3.25;85.44
77011;BME280;65945;53.148;17.956;2023-05-07T01:29:54;101923.71;;;3.19;85.56
77011;BME280;65945;53.148;17.956;2023-05-07T01:32:50;101926.17;;;3.13;85.57
77011;BME280;65945;53.148;17.956;2023-05-07T01:35:26;101929.98;;;3.07;85.55
77011;BME280;65945;53.148;17.956;2023-05-07T01:37:53;101928.36;;;3.01;85.49
77011;BME280;65945;53.148;17.956;2023-05-07T01:40:21;101930.39;;;2.96;85.56
77011;BME280;65945;53.148;17.956;2023-05-07T01:42:48;101927.81;;;2.90;85.51
77011;BME280;65945;53.148;17.956;2023-05-07T01:45:14;101930.27;;;2.85;85.47
77011;BME280;65945;53.148;17.956;2023-05-07T01:47:42;101933.33;;;2.80;85.56
77011;BME280;65945;53.148;17.956;2023-05-07T01:50:09;101934.91;;;2.74;85.47
77011;BME280;65945;53.148;17.956;2023-05-07T01:52:38;101935.89;;;2.70;85.57
77011;BME280;65945;53.148;17.956;2023-05-07T01:55:06;101936.94;;;2.66;85.67
77011;BME280;65945;53.148;17.956;2023-05-07T01:57:33;101941.38;;;2.62;85.78
77011;BME280;65945;53.148;17.956;2023-05-07T01:59:59;101938.21;;;2.57;85.80
77011;BME280;65945;53.148;17.956;2023-05-07T02:02:26;101941.23;;;2.53;85.92
77011;BME280;65945;53.148;17.956;2023-05-07T02:04:54;101940.80;;;2.49;86.00
77011;BME280;65945;53.148;17.956;2023-05-07T02:07:22;101940.54;;;2.47;86.07
77011;BME280;65945;53.148;17.956;2023-05-07T02:09:49;101940.22;;;2.46;86.14
77011;BME280;65945;53.148;17.956;2023-05-07T02:12:15;101939.70;;;2.44;86.13
77011;BME280;65945;53.148;17.956;2023-05-07T02:14:42;101939.63;;;2.43;86.17
77011;BME280;65945;53.148;17.956;2023-05-07T02:17:09;101939.16;;;2.41;86.15
77011;BME280;65945;53.148;17.956;2023-05-07T02:19:37;101939.90;;;2.37;85.97
77011;BME280;65945;53.148;17.956;2023-05-07T02:22:03;101943.39;;;2.35;85.91
77011;BME280;65945;53.148;17.956;2023-05-07T02:24:30;101947.67;;;2.32;86.04
77011;BME280;65945;53.148;17.956;2023-05-07T02:26:57;101951.05;;;2.30;86.17
77011;BME280;65945;53.148;17.956;2023-05-07T02:29:24;101954.52;;;2.27;86.13
77011;BME280;65945;53.148;17.956;2023-05-07T02:31:52;101956.33;;;2.24;86.14
77011;BME280;65945;53.148;17.956;2023-05-07T02:34:19;101954.73;;;2.22;86.32
77011;BME280;65945;53.148;17.956;2023-05-07T02:36:46;101958.48;;;2.20;86.19
77011;BME280;65945;53.148;17.956;2023-05-07T02:39:14;101960.96;;;2.20;86.36
77011;BME280;65945;53.148;17.956;2023-05-07T02:41:42;101959.74;;;2.19;86.42
77011;BME280;65945;53.148;17.956;2023-05-07T02:44:08;101959.63;;;2.18;86.25
77011;BME280;65945;53.148;17.956;2023-05-07T02:46:35;101959.64;;;2.16;86.31
77011;BME280;65945;53.148;17.956;2023-05-07T02:49:06;101960.64;;;2.14;86.20
77011;BME280;65945;53.148;17.956;2023-05-07T02:51:33;101959.10;;;2.13;86.35
77011;BME280;65945;53.148;17.956;2023-05-07T02:54:02;101955.45;;;2.11;86.48
77011;BME280;65945;53.148;17.956;2023-05-07T02:56:29;101951.66;;;2.09;86.35
77011;BME280;65945;53.148;17.956;2023-05-07T02:58:56;101956.14;;;2.07;86.36
77011;BME280;65945;53.148;17.956;2023-05-07T03:01:24;101957.98;;;2.06;86.26
77011;BME280;65945;53.148;17.956;2023-05-07T03:03:57;101956.40;;;2.05;86.44
77011;BME280;65945;53.148;17.956;2023-05-07T03:06:23;101959.94;;;2.05;86.51
77011;BME280;65945;53.148;17.956;2023-05-07T03:08:51;101964.46;;;2.04;86.60
77011;BME280;65945;53.148;17.956;2023-05-07T03:11:17;101969.11;;;2.02;86.48
77011;BME280;65945;53.148;17.956;2023-05-07T03:13:44;101970.16;;;1.99;86.46
77011;BME280;65945;53.148;17.956;2023-05-07T03:16:11;101972.05;;;1.97;86.52
77011;BME280;65945;53.148;17.956;2023-05-07T03:18:37;101974.95;;;1.95;86.47
77011;BME280;65945;53.148;17.956;2023-05-07T03:21:04;101977.05;;;1.93;86.30
77011;BME280;65945;53.148;17.956;2023-05-07T03:23:30;101980.59;;;1.92;86.27
77011;BME280;65945;53.148;17.956;2023-05-07T03:25:57;101986.04;;;1.91;86.28
77011;BME280;65945;53.148;17.956;2023-05-07T03:28:24;101985.75;;;1.90;86.43
77011;BME280;65945;53.148;17.956;2023-05-07T03:30:54;101984.11;;;1.90;86.28
77011;BME280;65945;53.148;17.956;2023-05-07T03:33:21;101986.52;;;1.92;86.34
77011;BME280;65945;53.148;17.956;2023-05-07T03:35:49;101989.51;;;1.94;86.33
77011;BME280;65945;53.148;17.956;2023-05-07T03:38:20;101992.58;;;1.95;86.12
77011;BME280;65945;53.148;17.956;2023-05-07T03:40:46;101996.86;;;1.96;86.15
77011;BME280;65945;53.148;17.956;2023-05-07T03:43:13;102003.36;;;1.99;86.39
77011;BME280;65945;53.148;17.956;2023-05-07T03:45:42;102005.27;;;2.04;86.30
77011;BME280;65945;53.148;17.956;2023-05-07T03:48:29;102007.17;;;2.07;86.30
77011;BME280;65945;53.148;17.956;2023-05-07T03:50:57;102003.91;;;2.07;86.29
77011;BME280;65945;53.148;17.956;2023-05-07T03:53:25;102005.91;;;2.08;86.51
77011;BME280;65945;53.148;17.956;2023-05-07T03:55:51;102010.66;;;2.09;86.35
77011;BME280;65945;53.148;17.956;2023-05-07T03:58:18;102013.25;;;2.09;86.28
77011;BME280;65945;53.148;17.956;2023-05-07T04:00:46;102017.48;;;2.09;86.24
77011;BME280;65945;53.148;17.956;2023-05-07T04:03:20;102018.05;;;2.10;86.29
77011;BME280;65945;53.148;17.956;2023-05-07T04:05:47;102023.14;;;2.13;86.25
77011;BME280;65945;53.148;17.956;2023-05-07T04:08:13;102023.61;;;2.15;86.25
77011;BME280;65945;53.148;17.956;2023-05-07T04:10:42;102031.33;;;2.19;86.25
77011;BME280;65945;53.148;17.956;2023-05-07T04:13:10;102030.49;;;2.23;86.49
77011;BME280;65945;53.148;17.956;2023-05-07T04:15:37;102035.47;;;2.28;86.46
77011;BME280;65945;53.148;17.956;2023-05-07T04:18:05;102032.05;;;2.33;86.31
77011;BME280;65945;53.148;17.956;2023-05-07T04:20:34;102036.60;;;2.38;86.63
77011;BME280;65945;53.148;17.956;2023-05-07T04:23:02;102037.92;;;2.45;86.64
77011;BME280;65945;53.148;17.956;2023-05-07T04:25:29;102044.06;;;2.50;86.60
77011;BME280;65945;53.148;17.956;2023-05-07T04:28:02;102046.14;;;2.56;86.73
77011;BME280;65945;53.148;17.956;2023-05-07T04:30:29;102047.48;;;2.63;86.78
77011;BME280;65945;53.148;17.956;2023-05-07T04:32:57;102048.52;;;2.70;86.63
77011;BME280;65945;53.148;17.956;2023-05-07T04:35:24;102046.10;;;2.78;86.67
77011;BME280;65945;53.148;17.956;2023-05-07T04:37:50;102046.93;;;2.87;86.62
77011;BME280;65945;53.148;17.956;2023-05-07T04:40:17;102050.16;;;2.98;86.68
77011;BME280;65945;53.148;17.956;2023-05-07T04:42:44;102052.06;;;3.10;86.66
77011;BME280;65945;53.148;17.956;2023-05-07T04:45:12;102060.73;;;3.20;86.66
77011;BME280;65945;53.148;17.956;2023-05-07T04:47:39;102065.77;;;3.32;86.70
77011;BME280;65945;53.148;17.956;2023-05-07T04:50:07;102069.26;;;3.43;86.35
77011;BME280;65945;53.148;17.956;2023-05-07T04:52:36;102071.55;;;3.56;86.38
77011;BME280;65945;53.148;17.956;2023-05-07T04:55:03;102067.34;;;3.68;86.43
77011;BME280;65945;53.148;17.956;2023-05-07T04:57:34;102069.35;;;3.80;86.49
77011;BME280;65945;53.148;17.956;2023-05-07T05:00:01;102074.40;;;3.91;86.55
77011;BME280;65945;53.148;17.956;2023-05-07T05:02:30;102072.92;;;4.02;86.34
77011;BME280;65945;53.148;17.956;2023-05-07T05:04:57;102076.36;;;4.13;86.21
77011;BME280;65945;53.148;17.956;2023-05-07T05:07:25;102078.80;;;4.25;85.95
77011;BME280;65945;53.148;17.956;2023-05-07T05:09:52;102079.23;;;4.36;85.88
77011;BME280;65945;53.148;17.956;2023-05-07T05:12:19;102082.66;;;4.45;85.64
77011;BME280;65945;53.148;17.956;2023-05-07T05:14:46;102084.86;;;4.57;85.72
77011;BME280;65945;53.148;17.956;2023-05-07T05:17:13;102085.65;;;4.68;85.38
77011;BME280;65945;53.148;17.956;2023-05-07T05:19:40;102093.16;;;4.79;85.03
77011;BME280;65945;53.148;17.956;2023-05-07T05:22:07;102098.37;;;4.89;84.93
77011;BME280;65945;53.148;17.956;2023-05-07T05:24:34;102091.83;;;5.00;84.67
77011;BME280;65945;53.148;17.956;2023-05-07T05:27:01;102093.11;;;5.10;84.64
77011;BME280;65945;53.148;17.956;2023-05-07T05:29:29;102096.16;;;5.20;84.40
77011;BME280;65945;53.148;17.956;2023-05-07T05:31:58;102095.48;;;5.31;84.37
77011;BME280;65945;53.148;17.956;2023-05-07T05:34:25;102093.88;;;5.44;83.95
77011;BME280;65945;53.148;17.956;2023-05-07T05:36:52;102095.56;;;5.54;83.84
77011;BME280;65945;53.148;17.956;2023-05-07T05:39:18;102097.95;;;5.65;83.80
77011;BME280;65945;53.148;17.956;2023-05-07T05:41:45;102099.21;;;5.76;83.77
77011;BME280;65945;53.148;17.956;2023-05-07T05:44:12;102098.27;;;5.87;82.68
77011;BME280;65945;53.148;17.956;2023-05-07T05:46:39;102092.92;;;5.98;82.63
77011;BME280;65945;53.148;17.956;2023-05-07T05:49:06;102100.42;;;6.11;82.52
77011;BME280;65945;53.148;17.956;2023-05-07T05:51:33;102099.89;;;6.23;82.82
77011;BME280;65945;53.148;17.956;2023-05-07T05:54:00;102105.55;;;6.37;82.45
77011;BME280;65945;53.148;17.956;2023-05-07T05:56:27;102104.46;;;6.47;81.06
77011;BME280;65945;53.148;17.956;2023-05-07T05:58:53;102112.34;;;6.58;81.76
77011;BME280;65945;53.148;17.956;2023-05-07T06:01:20;102112.10;;;6.70;81.39
77011;BME280;65945;53.148;17.956;2023-05-07T06:03:47;102108.80;;;6.82;81.17
77011;BME280;65945;53.148;17.956;2023-05-07T06:06:14;102109.53;;;6.93;80.87
77011;BME280;65945;53.148;17.956;2023-05-07T06:08:42;102110.78;;;7.01;79.51
77011;BME280;65945;53.148;17.956;2023-05-07T06:11:09;102109.99;;;7.10;79.99
77011;BME280;65945;53.148;17.956;2023-05-07T06:13:38;102110.04;;;7.23;80.17
77011;BME280;65945;53.148;17.956;2023-05-07T06:16:05;102109.23;;;7.36;79.45
77011;BME280;65945;53.148;17.956;2023-05-07T06:18:32;102111.98;;;7.48;79.33
77011;BME280;65945;53.148;17.956;2023-05-07T06:20:59;102107.29;;;7.58;78.04
77011;BME280;65945;53.148;17.956;2023-05-07T06:23:28;102113.83;;;7.67;77.83
77011;BME280;65945;53.148;17.956;2023-05-07T06:25:55;102111.55;;;7.78;77.79
77011;BME280;65945;53.148;17.956;2023-05-07T06:28:24;102116.44;;;7.91;77.91
77011;BME280;65945;53.148;17.956;2023-05-07T06:30:52;102115.58;;;8.01;76.22
77011;BME280;65945;53.148;17.956;2023-05-07T06:33:18;102118.86;;;8.12;77.47
77011;BME280;65945;53.148;17.956;2023-05-07T06:35:46;102121.71;;;8.25;76.39
77011;BME280;65945;53.148;17.956;2023-05-07T06:38:13;102120.72;;;8.32;73.43
77011;BME280;65945;53.148;17.956;2023-05-07T06:40:41;102120.89;;;8.36;73.61
77011;BME280;65945;53.148;17.956;2023-05-07T06:43:08;102123.56;;;8.39;73.03
77011;BME280;65945;53.148;17.956;2023-05-07T06:45:47;102121.52;;;8.45;73.51
77011;BME280;65945;53.148;17.956;2023-05-07T06:48:13;102121.50;;;8.53;74.67
77011;BME280;65945;53.148;17.956;2023-05-07T06:50:55;102124.77;;;8.70;75.43
77011;BME280;65945;53.148;17.956;2023-05-07T06:53:24;102124.82;;;8.87;75.17
77011;BME280;65945;53.148;17.956;2023-05-07T06:55:53;102128.97;;;8.99;72.63
77011;BME280;65945;53.148;17.956;2023-05-07T06:58:20;102131.36;;;9.06;72.84
77011;BME280;65945;53.148;17.956;2023-05-07T07:00:48;102134.92;;;9.16;72.14
77011;BME280;65945;53.148;17.956;2023-05-07T07:03:15;102142.00;;;9.27;73.51
77011;BME280;65945;53.148;17.956;2023-05-07T07:05:42;102144.41;;;9.39;73.69
77011;BME280;65945;53.148;17.956;2023-05-07T07:08:09;102146.82;;;9.50;73.66
77011;BME280;65945;53.148;17.956;2023-05-07T07:10:37;102147.48;;;9.62;72.63
77011;BME280;65945;53.148;17.956;2023-05-07T07:13:03;102147.27;;;9.63;69.19
77011;BME280;65945;53.148;17.956;2023-05-07T07:15:30;102145.89;;;9.63;71.12
77011;BME280;65945;53.148;17.956;2023-05-07T07:17:57;102146.16;;;9.69;70.43
77011;BME280;65945;53.148;17.956;2023-05-07T07:20:24;102147.48;;;9.69;66.74
77011;BME280;65945;53.148;17.956;2023-05-07T07:22:51;102143.81;;;9.71;67.65
77011;BME280;65945;53.148;17.956;2023-05-07T07:25:18;102148.05;;;9.76;68.57
77011;BME280;65945;53.148;17.956;2023-05-07T07:27:45;102148.24;;;9.85;68.61
77011;BME280;65945;53.148;17.956;2023-05-07T07:30:12;102143.68;;;9.93;65.45
77011;BME280;65945;53.148;17.956;2023-05-07T07:32:40;102148.10;;;9.99;68.73
77011;BME280;65945;53.148;17.956;2023-05-07T07:35:07;102146.97;;;10.12;69.57
77011;BME280;65945;53.148;17.956;2023-05-07T07:37:35;102146.92;;;10.24;68.65
77011;BME280;65945;53.148;17.956;2023-05-07T07:40:01;102146.13;;;10.34;65.59
77011;BME280;65945;53.148;17.956;2023-05-07T07:42:29;102147.71;;;10.40;66.97
77011;BME280;65945;53.148;17.956;2023-05-07T07:44:56;102149.81;;;10.51;64.86
77011;BME280;65945;53.148;17.956;2023-05-07T07:47:24;102153.62;;;10.61;63.86
77011;BME280;65945;53.148;17.956;2023-05-07T07:49:50;102155.86;;;10.72;62.91
77011;BME280;65945;53.148;17.956;2023-05-07T07:52:18;102156.49;;;10.82;61.87
77011;BME280;65945;53.148;17.956;2023-05-07T07:54:45;102155.10;;;10.92;59.27
77011;BME280;65945;53.148;17.956;2023-05-07T07:57:12;102156.59;;;10.98;61.66
77011;BME280;65945;53.148;17.956;2023-05-07T07:59:39;102155.48;;;11.02;54.48
77011;BME280;65945;53.148;17.956;2023-05-07T08:02:06;102154.52;;;10.97;50.29
77011;BME280;65945;53.148;17.956;2023-05-07T08:04:34;102152.90;;;10.94;51.67
77011;BME280;65945;53.148;17.956;2023-05-07T08:07:03;102156.71;;;10.94;49.36
77011;BME280;65945;53.148;17.956;2023-05-07T08:09:31;102162.11;;;10.98;51.28
77011;BME280;65945;53.148;17.956;2023-05-07T08:11:58;102160.79;;;11.06;51.28
77011;BME280;65945;53.148;17.956;2023-05-07T08:14:25;102164.23;;;11.13;50.37
77011;BME280;65945;53.148;17.956;2023-05-07T08:16:52;102163.53;;;11.24;54.34
77011;BME280;65945;53.148;17.956;2023-05-07T08:19:19;102167.05;;;11.34;54.64
77011;BME280;65945;53.148;17.956;2023-05-07T08:21:46;102164.19;;;11.44;54.52
77011;BME280;65945;53.148;17.956;2023-05-07T08:24:17;102169.89;;;11.58;54.62
77011;BME280;65945;53.148;17.956;2023-05-07T08:26:45;102168.45;;;11.68;52.45
77011;BME280;65945;53.148;17.956;2023-05-07T08:29:12;102161.42;;;11.73;50.90
77011;BME280;65945;53.148;17.956;2023-05-07T08:31:39;102162.48;;;11.77;52.73
77011;BME280;65945;53.148;17.956;2023-05-07T08:34:06;102162.92;;;11.86;53.17
77011;BME280;65945;53.148;17.956;2023-05-07T08:36:34;102162.06;;;11.94;51.49
77011;BME280;65945;53.148;17.956;2023-05-07T08:39:01;102164.38;;;11.98;51.86
77011;BME280;65945;53.148;17.956;2023-05-07T08:41:27;102169.91;;;12.00;52.92
77011;BME280;65945;53.148;17.956;2023-05-07T08:43:57;102170.60;;;12.09;52.66
77011;BME280;65945;53.148;17.956;2023-05-07T08:46:25;102170.04;;;12.21;51.89
77011;BME280;65945;53.148;17.956;2023-05-07T08:48:55;102173.52;;;12.33;49.86
77011;BME280;65945;53.148;17.956;2023-05-07T08:51:22;102170.16;;;12.38;48.28
77011;BME280;65945;53.148;17.956;2023-05-07T08:53:49;102169.42;;;12.45;50.16
77011;BME280;65945;53.148;17.956;2023-05-07T08:56:21;102173.21;;;12.47;47.02
77011;BME280;65945;53.148;17.956;2023-05-07T08:58:48;102175.08;;;12.48;48.68
77011;BME280;65945;53.148;17.956;2023-05-07T09:01:16;102175.52;;;12.61;51.00
77011;BME280;65945;53.148;17.956;2023-05-07T09:03:46;102172.58;;;12.73;48.26
77011;BME280;65945;53.148;17.956;2023-05-07T09:06:14;102178.61;;;12.85;51.36
77011;BME280;65945;53.148;17.956;2023-05-07T09:08:49;102178.62;;;12.95;49.35
77011;BME280;65945;53.148;17.956;2023-05-07T09:11:20;102177.80;;;13.02;47.40
77011;BME280;65945;53.148;17.956;2023-05-07T09:13:48;102178.88;;;13.07;46.37
77011;BME280;65945;53.148;17.956;2023-05-07T09:16:15;102181.25;;;13.09;46.48
77011;BME280;65945;53.148;17.956;2023-05-07T09:18:44;102184.33;;;13.16;47.00
77011;BME280;65945;53.148;17.956;2023-05-07T09:21:16;102182.88;;;13.23;47.51
77011;BME280;65945;53.148;17.956;2023-05-07T09:23:43;102179.77;;;13.19;43.16
77011;BME280;65945;53.148;17.956;2023-05-07T09:26:09;102180.46;;;13.17;47.66
77011;BME280;65945;53.148;17.956;2023-05-07T09:28:39;102178.57;;;13.27;47.98
77011;BME280;65945;53.148;17.956;2023-05-07T09:31:09;102181.90;;;13.36;47.81
77011;BME280;65945;53.148;17.956;2023-05-07T09:33:36;102176.51;;;13.43;46.70
77011;BME280;65945;53.148;17.956;2023-05-07T09:36:08;102178.57;;;13.43;43.72
77011;BME280;65945;53.148;17.956;2023-05-07T09:38:37;102185.02;;;13.41;43.51
77011;BME280;65945;53.148;17.956;2023-05-07T09:41:09;102181.65;;;13.41;43.87
77011;BME280;65945;53.148;17.956;2023-05-07T09:43:42;102184.13;;;13.41;44.17
77011;BME280;65945;53.148;17.956;2023-05-07T09:46:13;102184.36;;;13.46;44.58
77011;BME280;65945;53.148;17.956;2023-05-07T09:48:43;102186.50;;;13.52;44.60
77011;BME280;65945;53.148;17.956;2023-05-07T09:51:15;102186.09;;;13.55;43.61
77011;BME280;65945;53.148;17.956;2023-05-07T09:53:45;102189.44;;;13.61;45.11
77011;BME280;65945;53.148;17.956;2023-05-07T09:56:14;102192.07;;;13.66;43.95
77011;BME280;65945;53.148;17.956;2023-05-07T09:58:44;102191.35;;;13.63;43.66
77011;BME280;65945;53.148;17.956;2023-05-07T10:01:12;102194.33;;;13.60;43.08
77011;BME280;65945;53.148;17.956;2023-05-07T10:03:40;102198.36;;;13.57;42.28
77011;BME280;65945;53.148;17.956;2023-05-07T10:06:09;102202.23;;;13.56;41.89
77011;BME280;65945;53.148;17.956;2023-05-07T10:08:37;102197.02;;;13.56;42.00
77011;BME280;65945;53.148;17.956;2023-05-07T10:11:05;102202.02;;;13.59;43.73
77011;BME280;65945;53.148;17.956;2023-05-07T10:13:33;102204.13;;;13.66;42.15
77011;BME280;65945;53.148;17.956;2023-05-07T10:16:06;102201.33;;;13.67;43.02
77011;BME280;65945;53.148;17.956;2023-05-07T10:18:36;102197.61;;;13.71;42.88
77011;BME280;65945;53.148;17.956;2023-05-07T10:21:17;102198.39;;;13.65;42.55
77011;BME280;65945;53.148;17.956;2023-05-07T10:23:51;102197.27;;;13.54;43.96
77011;BME280;65945;53.148;17.956;2023-05-07T10:26:21;102199.58;;;13.66;44.18
77011;BME280;65945;53.148;17.956;2023-05-07T10:28:54;102202.59;;;13.68;44.97
77011;BME280;65945;53.148;17.956;2023-05-07T10:34:24;102202.20;;;13.80;44.90
77011;BME280;65945;53.148;17.956;2023-05-07T10:36:53;102204.21;;;13.92;44.54
77011;BME280;65945;53.148;17.956;2023-05-07T10:39:21;102205.02;;;14.04;44.89
77011;BME280;65945;53.148;17.956;2023-05-07T10:41:49;102200.17;;;14.19;44.81
77011;BME280;65945;53.148;17.956;2023-05-07T10:44:35;102202.45;;;14.31;42.78
77011;BME280;65945;53.148;17.956;2023-05-07T10:47:11;102199.70;;;14.44;42.45
77011;BME280;65945;53.148;17.956;2023-05-07T10:52:24;102200.92;;;14.57;41.83
77011;BME280;65945;53.148;17.956;2023-05-07T10:58:27;102201.52;;;14.51;43.51
77011;BME280;65945;53.148;17.956;2023-05-07T11:01:00;102197.45;;;14.67;44.24
77011;BME280;65945;53.148;17.956;2023-05-07T11:03:32;102200.77;;;14.83;43.69
77011;BME280;65945;53.148;17.956;2023-05-07T11:06:12;102198.58;;;14.94;43.67
77011;BME280;65945;53.148;17.956;2023-05-07T11:09:02;102199.46;;;14.85;42.51
77011;BME280;65945;53.148;17.956;2023-05-07T11:11:56;102205.44;;;14.66;43.04
77011;BME280;65945;53.148;17.956;2023-05-07T11:14:45;102212.30;;;14.49;42.35
77011;BME280;65945;53.148;17.956;2023-05-07T11:17:33;102208.45;;;14.34;41.17
77011;BME280;65945;53.148;17.956;2023-05-07T11:20:05;102209.42;;;14.24;42.73
77011;BME280;65945;53.148;17.956;2023-05-07T11:22:42;102211.55;;;14.16;43.10
77011;BME280;65945;53.148;17.956;2023-05-07T11:25:25;102213.92;;;14.06;43.31
77011;BME280;65945;53.148;17.956;2023-05-07T11:28:05;102214.15;;;13.92;43.21
77011;BME280;65945;53.148;17.956;2023-05-07T11:30:32;102209.10;;;13.88;43.23
77011;BME280;65945;53.148;17.956;2023-05-07T11:32:59;102205.16;;;13.90;42.92
77011;BME280;65945;53.148;17.956;2023-05-07T11:35:26;102203.30;;;13.90;42.94
77011;BME280;65945;53.148;17.956;2023-05-07T11:37:59;102202.68;;;13.90;43.12
77011;BME280;65945;53.148;17.956;2023-05-07T11:40:26;102200.14;;;13.87;41.08
77011;BME280;65945;53.148;17.956;2023-05-07T11:42:55;102202.02;;;13.90;41.63
77011;BME280;65945;53.148;17.956;2023-05-07T11:45:24;102198.80;;;13.86;42.30
77011;BME280;65945;53.148;17.956;2023-05-07T11:47:52;102203.19;;;13.74;42.71
77011;BME280;65945;53.148;17.956;2023-05-07T11:50:18;102210.90;;;13.69;43.59
77011;BME280;65945;53.148;17.956;2023-05-07T11:52:51;102207.58;;;13.75;43.36
77011;BME280;65945;53.148;17.956;2023-05-07T11:55:20;102206.06;;;13.80;43.18
77011;BME280;65945;53.148;17.956;2023-05-07T11:57:48;102208.22;;;13.97;43.37
77011;BME280;65945;53.148;17.956;2023-05-07T12:00:15;102203.21;;;14.08;38.14
77011;BME280;65945;53.148;17.956;2023-05-07T12:02:44;102211.96;;;14.08;39.13
77011;BME280;65945;53.148;17.956;2023-05-07T12:05:11;102213.80;;;14.05;41.05
77011;BME280;65945;53.148;17.956;2023-05-07T12:07:38;102217.80;;;14.19;42.55
77011;BME280;65945;53.148;17.956;2023-05-07T12:10:05;102216.03;;;14.33;42.29
77011;BME280;65945;53.148;17.956;2023-05-07T12:12:45;102218.67;;;14.32;41.97
77011;BME280;65945;53.148;17.956;2023-05-07T12:15:16;102213.03;;;14.23;41.75
77011;BME280;65945;53.148;17.956;2023-05-07T12:17:43;102210.14;;;14.15;42.04
77011;BME280;65945;53.148;17.956;2023-05-07T12:20:11;102211.39;;;14.18;42.18
77011;BME280;65945;53.148;17.956;2023-05-07T12:22:38;102211.28;;;14.28;41.46
77011;BME280;65945;53.148;17.956;2023-05-07T12:25:05;102212.85;;;14.37;42.05
77011;BME280;65945;53.148;17.956;2023-05-07T12:27:37;102212.16;;;14.57;42.21
77011;BME280;65945;53.148;17.956;2023-05-07T12:30:04;102208.29;;;14.74;42.11
77011;BME280;65945;53.148;17.956;2023-05-07T12:32:32;102206.01;;;14.82;40.48
77011;BME280;65945;53.148;17.956;2023-05-07T12:35:03;102209.42;;;14.92;39.03
77011;BME280;65945;53.148;17.956;2023-05-07T12:37:32;102211.55;;;14.98;38.01
77011;BME280;65945;53.148;17.956;2023-05-07T12:40:06;102209.83;;;14.87;38.45
77011;BME280;65945;53.148;17.956;2023-05-07T12:42:36;102213.20;;;14.86;38.17
77011;BME280;65945;53.148;17.956;2023-05-07T12:45:13;102212.17;;;14.91;38.78
77011;BME280;65945;53.148;17.956;2023-05-07T12:47:46;102215.73;;;14.96;38.63
77011;BME280;65945;53.148;17.956;2023-05-07T12:50:14;102215.20;;;15.11;39.47
77011;BME280;65945;53.148;17.956;2023-05-07T12:52:41;102210.85;;;15.23;39.07
77011;BME280;65945;53.148;17.956;2023-05-07T12:55:08;102211.06;;;15.27;38.62
77011;BME280;65945;53.148;17.956;2023-05-07T12:57:43;102213.08;;;15.26;37.84
77011;BME280;65945;53.148;17.956;2023-05-07T13:00:10;102213.94;;;15.28;38.51
77011;BME280;65945;53.148;17.956;2023-05-07T13:02:38;102213.65;;;15.43;39.13